createdAt,value
2019-03-22T00:01:16.606Z,27.67
2019-03-22T00:03:48.160Z,27.67
2019-03-22T00:06:20.053Z,30.20
2019-03-22T00:08:51.591Z,27.03
2019-03-22T00:11:23.464Z,28.10
2019-03-22T00:13:55.116Z,28.33
2019-03-22T00:16:26.778Z,27.77
2019-03-22T00:18:58.991Z,28.83
2019-03-22T00:21:30.807Z,29.93
2019-03-22T00:24:02.571Z,30.80
2019-03-22T00:26:34.210Z,30.37
2019-03-22T00:29:05.782Z,29.83
2019-03-22T00:31:37.440Z,30.57
2019-03-22T00:34:09.102Z,30.03
2019-03-22T00:36:40.635Z,30.60
2019-03-22T00:39:12.518Z,29.17
2019-03-22T00:41:44.170Z,30.93
2019-03-22T00:44:15.813Z,30.23
2019-03-22T00:46:47.692Z,29.73
2019-03-22T00:49:19.244Z,31.00
2019-03-22T00:51:50.786Z,31.23
2019-03-22T00:54:23.677Z,31.43
2019-03-22T00:56:56.770Z,31.43
2019-03-22T00:59:28.423Z,30.40
2019-03-22T01:02:00.292Z,30.33
2019-03-22T01:04:32.054Z,30.83
2019-03-22T01:07:03.707Z,32.07
2019-03-22T01:09:36.590Z,31.13
2019-03-22T01:12:09.378Z,31.33
2019-03-22T01:14:41.158Z,31.93
2019-03-22T01:17:13.837Z,30.30
2019-03-22T01:19:45.477Z,31.37
2019-03-22T01:22:17.155Z,31.63
2019-03-22T01:24:49.023Z,31.93
2019-03-22T01:27:20.778Z,31.07
2019-03-22T01:29:52.336Z,30.67
2019-03-22T01:32:23.989Z,29.60
2019-03-22T01:34:55.850Z,31.83
2019-03-22T01:37:27.508Z,29.77
2019-03-22T01:40:00.499Z,30.43
2019-03-22T01:42:32.259Z,30.80
2019-03-22T01:45:05.943Z,31.13
2019-03-22T01:47:38.010Z,30.65
2019-03-22T01:50:15.109Z,30.83
2019-03-22T01:52:47.482Z,30.17
2019-03-22T01:55:19.021Z,30.20
2019-03-22T01:57:53.666Z,30.80
2019-03-22T02:00:23.786Z,30.53
2019-03-22T02:02:55.548Z,29.87
2019-03-22T02:05:27.102Z,30.30
2019-03-22T02:07:58.561Z,31.20
2019-03-22T02:10:30.402Z,31.20
2019-03-22T02:13:02.024Z,32.20
2019-03-22T02:15:33.818Z,32.40
2019-03-22T02:18:05.695Z,33.07
2019-03-22T02:20:37.248Z,33.03
2019-03-22T02:23:09.112Z,36.47
2019-03-22T02:25:40.800Z,41.20
2019-03-22T02:28:12.614Z,35.10
2019-03-22T02:30:44.497Z,35.93
2019-03-22T02:33:16.042Z,36.13
2019-03-22T02:35:47.801Z,33.03
2019-03-22T02:38:19.484Z,31.60
2019-03-22T02:40:51.231Z,32.27
2019-03-22T02:43:22.768Z,32.87
2019-03-22T02:45:54.647Z,32.23
2019-03-22T02:48:26.297Z,33.17
2019-03-22T02:50:57.763Z,32.20
2019-03-22T02:53:29.512Z,32.07
2019-03-22T02:56:01.237Z,33.27
2019-03-22T02:58:32.918Z,35.33
2019-03-22T03:01:04.717Z,32.33
2019-03-22T03:03:36.356Z,33.30
2019-03-22T03:06:08.122Z,31.77
2019-03-22T03:08:39.870Z,30.77
2019-03-22T03:11:11.511Z,30.80
2019-03-22T03:13:43.295Z,31.10
2019-03-22T03:16:15.047Z,31.73
2019-03-22T03:18:46.908Z,34.57
2019-03-22T03:21:18.347Z,33.57
2019-03-22T03:23:50.117Z,33.03
2019-03-22T03:26:21.678Z,33.77
2019-03-22T03:28:53.225Z,32.70
2019-03-22T03:31:25.052Z,33.30
2019-03-22T03:33:56.658Z,33.13
2019-03-22T03:36:28.201Z,34.97
2019-03-22T03:38:59.852Z,34.77
2019-03-22T03:41:31.595Z,34.53
2019-03-22T03:44:03.382Z,32.33
2019-03-22T03:46:35.033Z,32.20
2019-03-22T03:49:06.996Z,32.60
2019-03-22T03:51:38.551Z,32.53
2019-03-22T03:54:10.403Z,31.53
2019-03-22T03:56:42.075Z,31.93
2019-03-22T03:59:13.560Z,34.10
2019-03-22T04:01:45.284Z,37.40
2019-03-22T04:04:17.052Z,34.40
2019-03-22T04:06:48.494Z,34.20
2019-03-22T04:09:20.352Z,33.00
2019-03-22T04:11:52.010Z,32.73
2019-03-22T04:14:23.681Z,31.37
2019-03-22T04:16:55.030Z,33.30
2019-03-22T04:19:26.776Z,31.13
2019-03-22T04:21:58.450Z,30.03
2019-03-22T04:24:29.985Z,31.00
2019-03-22T04:27:01.648Z,32.07
2019-03-22T04:29:33.423Z,30.83
2019-03-22T04:32:04.988Z,31.83
2019-03-22T04:34:36.518Z,30.63
2019-03-22T04:37:08.397Z,31.37
2019-03-22T04:39:39.851Z,30.80
2019-03-22T04:42:11.701Z,31.20
2019-03-22T04:44:43.475Z,30.90
2019-03-22T04:47:15.442Z,31.30
2019-03-22T04:49:47.283Z,30.43
2019-03-22T04:52:19.573Z,30.73
2019-03-22T04:54:51.022Z,31.93
2019-03-22T04:57:22.563Z,30.17
2019-03-22T04:59:54.321Z,30.70
2019-03-22T05:02:25.991Z,31.63
2019-03-22T05:04:57.551Z,32.60
2019-03-22T05:07:29.303Z,32.70
2019-03-22T05:10:00.964Z,31.57
2019-03-22T05:12:32.836Z,33.13
2019-03-22T05:15:06.535Z,31.10
2019-03-22T05:17:38.034Z,31.12
2019-03-22T05:20:09.837Z,32.63
2019-03-22T05:22:41.601Z,32.23
2019-03-22T05:25:13.072Z,33.18
2019-03-22T05:27:44.812Z,32.48
2019-03-22T05:30:51.916Z,34.15
2019-03-22T05:33:23.552Z,33.33
2019-03-22T05:35:55.208Z,36.13
2019-03-22T05:38:27.170Z,36.90
2019-03-22T05:40:59.015Z,38.08
2019-03-22T05:43:30.370Z,38.75
2019-03-22T05:46:02.229Z,36.95
2019-03-22T05:48:33.801Z,36.30
2019-03-22T05:51:05.852Z,36.35
2019-03-22T05:53:37.408Z,37.25
2019-03-22T05:56:10.408Z,36.10
2019-03-22T05:58:42.071Z,35.68
2019-03-22T06:01:13.828Z,33.42
2019-03-22T06:03:45.280Z,35.58
2019-03-22T06:06:16.936Z,34.20
2019-03-22T06:08:48.420Z,34.90
2019-03-22T06:11:20.250Z,34.63
2019-03-22T06:13:52.067Z,35.98
2019-03-22T06:16:23.773Z,35.70
2019-03-22T06:18:55.409Z,33.50
2019-03-22T06:21:27.093Z,32.33
2019-03-22T06:23:58.829Z,32.33
2019-03-22T06:26:30.705Z,33.73
2019-03-22T06:29:02.058Z,32.55
2019-03-22T06:31:33.715Z,34.45
2019-03-22T06:34:05.630Z,33.95
2019-03-22T06:36:37.334Z,35.55
2019-03-22T06:39:09.097Z,33.35
2019-03-22T06:41:40.649Z,31.62
2019-03-22T06:44:12.511Z,35.35
2019-03-22T06:46:44.153Z,33.90
2019-03-22T06:49:15.726Z,34.08
2019-03-22T06:51:47.591Z,32.03
2019-03-22T06:54:30.724Z,32.20
2019-03-22T06:56:52.341Z,33.18
2019-03-22T06:59:24.102Z,32.60
2019-03-22T07:01:55.860Z,32.58
2019-03-22T07:04:27.923Z,32.93
2019-03-22T07:06:59.669Z,34.15
2019-03-22T07:09:31.546Z,30.82
2019-03-22T07:12:03.204Z,31.00
2019-03-22T07:14:35.579Z,31.15
2019-03-22T07:17:07.033Z,28.87
2019-03-22T07:19:39.794Z,28.87
2019-03-22T07:22:12.797Z,29.55
2019-03-22T07:24:44.455Z,27.60
2019-03-22T07:27:16.093Z,27.85
2019-03-22T07:29:47.978Z,25.97
2019-03-22T07:32:21.166Z,25.72
2019-03-22T07:34:52.718Z,24.52
2019-03-22T07:37:24.264Z,23.95
2019-03-22T07:39:55.974Z,24.25
2019-03-22T07:42:27.681Z,25.10
2019-03-22T07:44:59.046Z,25.30
2019-03-22T07:47:30.791Z,25.23
2019-03-22T07:50:05.332Z,26.65
2019-03-22T07:52:36.707Z,25.20
2019-03-22T07:55:08.399Z,24.18
2019-03-22T07:57:40.079Z,21.33
2019-03-22T08:00:13.009Z,21.77
2019-03-22T08:02:44.437Z,24.43
2019-03-22T08:05:15.977Z,24.82
2019-03-22T08:07:47.644Z,24.25
2019-03-22T08:10:19.411Z,24.18
2019-03-22T08:12:51.053Z,21.50
2019-03-22T08:15:28.256Z,23.35
2019-03-22T08:18:00.116Z,22.60
2019-03-22T08:20:31.990Z,20.80
2019-03-22T08:23:04.838Z,20.68
2019-03-22T08:25:36.532Z,20.60
2019-03-22T08:28:07.949Z,20.40
2019-03-22T08:30:43.200Z,18.40
2019-03-22T08:33:13.227Z,14.23
2019-03-22T08:35:44.971Z,14.40
2019-03-22T08:38:17.657Z,13.55
2019-03-22T08:40:49.331Z,17.57
2019-03-22T08:43:21.065Z,15.75
2019-03-22T08:45:52.724Z,15.08
2019-03-22T08:48:24.517Z,15.63
2019-03-22T08:50:56.081Z,13.08
2019-03-22T08:53:27.820Z,11.95
2019-03-22T08:55:59.460Z,12.33
2019-03-22T08:58:31.130Z,10.85
2019-03-22T09:01:02.934Z,10.60
2019-03-22T09:03:34.546Z,11.28
2019-03-22T09:06:07.856Z,8.05
2019-03-22T09:08:39.515Z,8.13
2019-03-22T09:11:11.153Z,9.75
2019-03-22T09:13:42.911Z,9.83
2019-03-22T09:16:14.575Z,9.20
2019-03-22T09:18:47.455Z,9.63
2019-03-22T09:21:19.203Z,9.63
2019-03-22T09:23:50.979Z,9.13
2019-03-22T09:26:22.670Z,10.78
2019-03-22T09:28:54.185Z,9.98
2019-03-22T09:31:25.658Z,12.13
2019-03-22T09:33:57.421Z,13.30
2019-03-22T09:36:29.128Z,12.30
2019-03-22T09:39:00.928Z,12.85
2019-03-22T09:41:32.870Z,12.20
2019-03-22T09:44:05.875Z,13.10
2019-03-22T09:46:37.643Z,13.40
2019-03-22T09:49:09.539Z,15.08
2019-03-22T09:51:41.041Z,14.15
2019-03-22T09:54:12.722Z,15.70
2019-03-22T09:56:47.262Z,14.85
2019-03-22T09:59:17.885Z,15.35
2019-03-22T10:01:49.905Z,15.28
2019-03-22T10:04:21.546Z,15.88
2019-03-22T10:06:53.286Z,17.85
2019-03-22T10:09:24.970Z,17.50
2019-03-22T10:11:56.443Z,15.38
2019-03-22T10:14:31.223Z,15.53
2019-03-22T10:17:01.191Z,17.00
2019-03-22T10:19:32.934Z,16.12
2019-03-22T10:22:04.532Z,16.67
2019-03-22T10:24:36.296Z,17.82
2019-03-22T10:27:07.942Z,17.40
2019-03-22T10:29:39.401Z,18.77
2019-03-22T10:32:11.463Z,18.90
2019-03-22T10:34:42.947Z,19.57
2019-03-22T10:37:15.453Z,17.45
2019-03-22T10:39:47.039Z,17.70
2019-03-22T10:42:19.068Z,21.27
2019-03-22T10:44:50.594Z,25.80
2019-03-22T10:47:22.165Z,21.73
2019-03-22T10:49:54.913Z,19.60
2019-03-22T10:52:26.657Z,21.82
2019-03-22T10:55:07.875Z,18.75
2019-03-22T10:57:31.827Z,18.30
2019-03-22T11:00:05.341Z,19.67
2019-03-22T11:02:36.975Z,27.98
2019-03-22T11:05:08.432Z,21.17
2019-03-22T11:07:40.206Z,21.40
2019-03-22T11:10:13.680Z,23.27
2019-03-22T11:12:45.140Z,21.00
2019-03-22T11:15:16.614Z,19.27
2019-03-22T11:17:48.266Z,14.47
2019-03-22T11:20:20.116Z,10.60
2019-03-22T11:22:51.785Z,9.93
2019-03-22T11:25:23.327Z,9.58
2019-03-22T11:27:54.774Z,10.32
2019-03-22T11:30:26.658Z,10.48
2019-03-22T11:32:58.217Z,12.00
2019-03-22T11:35:29.972Z,11.90
2019-03-22T11:38:01.413Z,11.10
2019-03-22T11:40:33.086Z,11.78
2019-03-22T11:43:08.821Z,12.33
2019-03-22T11:45:38.139Z,12.10
2019-03-22T11:48:09.982Z,14.75
2019-03-22T11:50:41.542Z,14.87
2019-03-22T11:53:13.210Z,12.07
2019-03-22T11:55:45.073Z,13.50
2019-03-22T11:58:16.730Z,13.32
2019-03-22T12:00:51.661Z,15.13
2019-03-22T12:03:23.321Z,14.07
2019-03-22T12:05:54.979Z,15.15
2019-03-22T12:08:26.820Z,13.08
2019-03-22T12:10:58.496Z,11.78
2019-03-22T12:13:30.969Z,12.03
2019-03-22T12:16:02.730Z,12.78
2019-03-22T12:18:35.407Z,12.37
2019-03-22T12:21:06.864Z,12.90
2019-03-22T12:23:38.619Z,12.55
2019-03-22T12:26:11.595Z,12.53
2019-03-22T12:28:43.475Z,11.93
2019-03-22T12:31:15.132Z,10.93
2019-03-22T12:33:46.783Z,10.40
2019-03-22T12:36:18.748Z,8.45
2019-03-22T12:38:50.201Z,9.33
2019-03-22T12:41:22.060Z,9.08
2019-03-22T12:43:53.718Z,10.10
2019-03-22T12:46:25.278Z,9.95
2019-03-22T12:48:57.142Z,10.20
2019-03-22T12:51:28.895Z,11.97
2019-03-22T12:54:00.759Z,10.60
2019-03-22T12:56:32.401Z,11.30
2019-03-22T12:59:04.079Z,12.15
2019-03-22T13:01:36.140Z,12.60
2019-03-22T13:04:08.494Z,12.75
2019-03-22T13:06:40.359Z,13.60
2019-03-22T13:09:11.915Z,12.85
2019-03-22T13:11:43.486Z,13.98
2019-03-22T13:14:15.350Z,14.38
2019-03-22T13:16:46.799Z,14.80
2019-03-22T13:19:18.543Z,13.60
2019-03-22T13:21:50.423Z,15.35
2019-03-22T13:24:21.978Z,16.82
2019-03-22T13:26:53.841Z,13.95
2019-03-22T13:29:25.596Z,13.45
2019-03-22T13:31:57.361Z,14.58
2019-03-22T13:34:28.912Z,14.65
2019-03-22T13:37:00.449Z,12.75
2019-03-22T13:39:32.330Z,13.15
2019-03-22T13:42:03.986Z,12.03
2019-03-22T13:44:35.942Z,12.58
2019-03-22T13:47:07.404Z,12.85
2019-03-22T13:49:38.954Z,13.78
2019-03-22T13:52:10.515Z,12.90
2019-03-22T13:54:42.872Z,13.15
2019-03-22T13:57:14.659Z,12.28
2019-03-22T13:59:46.213Z,11.22
2019-03-22T14:02:17.850Z,14.50
2019-03-22T14:04:49.624Z,16.65
2019-03-22T14:07:21.254Z,18.70
2019-03-22T14:09:53.138Z,16.93
2019-03-22T14:12:24.882Z,17.67
2019-03-22T14:14:56.960Z,17.00
2019-03-22T14:17:28.703Z,19.92
2019-03-22T14:20:10.450Z,19.65
2019-03-22T14:22:33.464Z,18.73
2019-03-22T14:25:06.251Z,20.20
2019-03-22T14:27:37.989Z,21.73
2019-03-22T14:30:09.752Z,21.87
2019-03-22T14:32:41.320Z,22.02
2019-03-22T14:35:12.962Z,20.60
2019-03-22T14:37:44.432Z,18.12
2019-03-22T14:40:16.087Z,18.98
2019-03-22T14:42:47.934Z,21.48
2019-03-22T14:45:19.692Z,21.30
2019-03-22T14:47:51.571Z,20.45
2019-03-22T14:50:23.228Z,19.98
2019-03-22T14:52:55.094Z,19.60
2019-03-22T14:55:26.544Z,20.52
2019-03-22T14:57:58.395Z,18.27
2019-03-22T15:00:30.205Z,20.00
2019-03-22T15:03:01.736Z,20.20
2019-03-22T15:05:36.553Z,20.68
2019-03-22T15:08:10.098Z,21.17
2019-03-22T15:10:41.916Z,23.50
2019-03-22T15:13:14.496Z,23.67
2019-03-22T15:16:05.812Z,23.00
2019-03-22T15:18:50.987Z,24.30
2019-03-22T15:21:24.079Z,27.32
2019-03-22T15:24:06.280Z,26.23
2019-03-22T15:26:44.157Z,24.47
2019-03-22T15:29:38.475Z,23.52
2019-03-22T15:32:40.314Z,23.30
2019-03-22T15:35:16.414Z,24.60
2019-03-22T15:37:59.621Z,25.55
2019-03-22T15:40:31.173Z,24.80
2019-03-22T15:43:04.062Z,24.32
2019-03-22T15:45:35.510Z,26.05
2019-03-22T15:48:07.375Z,25.23
2019-03-22T15:50:38.932Z,22.45
2019-03-22T15:53:11.850Z,24.98
2019-03-22T15:55:43.265Z,23.85
2019-03-22T15:58:15.007Z,24.57
2019-03-22T16:00:46.672Z,23.38
2019-03-22T16:03:18.535Z,24.43
2019-03-22T16:05:50.086Z,23.73
2019-03-22T16:08:21.531Z,22.17
2019-03-22T16:10:54.250Z,23.75
2019-03-22T16:13:26.847Z,25.55
2019-03-22T16:15:58.369Z,25.08
2019-03-22T16:30:40.646Z,6.35
2019-03-22T16:33:12.560Z,3.58
2019-03-22T16:35:44.157Z,6.70
2019-03-22T16:38:15.809Z,7.65
2019-03-22T16:40:47.460Z,10.35
2019-03-22T16:43:20.439Z,9.30
2019-03-22T16:45:51.772Z,11.38
2019-03-22T16:48:23.453Z,11.80
2019-03-22T16:50:56.354Z,10.53
2019-03-22T16:53:28.260Z,12.37
2019-03-22T16:56:01.918Z,13.70
2019-03-22T16:58:33.567Z,14.45
2019-03-22T17:01:06.462Z,11.45
2019-03-22T17:03:37.891Z,11.18
2019-03-22T17:06:09.671Z,11.40
2019-03-22T17:08:41.079Z,10.93
2019-03-22T17:11:12.841Z,9.78
2019-03-22T17:13:44.637Z,5.87
2019-03-22T17:16:16.184Z,7.03
2019-03-22T17:18:47.953Z,9.38
2019-03-22T17:21:19.287Z,11.25
2019-03-22T17:23:51.267Z,9.15
2019-03-22T17:26:22.831Z,10.45
2019-03-22T17:28:54.467Z,10.13
2019-03-22T17:31:26.341Z,7.92
2019-03-22T17:33:58.392Z,10.20
2019-03-22T17:36:29.870Z,11.18
2019-03-22T17:39:01.927Z,9.35
2019-03-22T17:41:34.494Z,11.57
2019-03-22T17:44:06.262Z,10.40
2019-03-22T17:46:37.816Z,10.00
2019-03-22T17:49:09.815Z,7.95
2019-03-22T17:51:41.335Z,7.47
2019-03-22T17:54:13.196Z,8.60
2019-03-22T17:56:44.735Z,7.72
2019-03-22T17:59:16.508Z,6.37
2019-03-22T18:01:48.524Z,6.35
2019-03-22T18:04:24.078Z,6.55
2019-03-22T18:06:53.222Z,6.28
2019-03-22T18:09:25.049Z,6.78
2019-03-22T18:11:56.522Z,6.85
2019-03-22T18:14:28.582Z,7.00
2019-03-22T18:17:00.031Z,7.22
2019-03-22T18:19:33.139Z,6.67
2019-03-22T18:22:04.692Z,6.67
2019-03-22T18:24:36.542Z,6.47
2019-03-22T18:27:08.127Z,5.72
2019-03-22T18:29:40.010Z,4.87
2019-03-22T18:32:12.450Z,5.70
2019-03-22T18:34:44.217Z,5.08
2019-03-22T18:37:16.078Z,6.15
2019-03-22T18:39:48.139Z,6.03
2019-03-22T18:42:19.700Z,5.08
2019-03-22T18:44:51.142Z,4.92
2019-03-22T18:47:22.820Z,7.47
2019-03-22T18:49:55.068Z,7.83
2019-03-22T18:52:26.837Z,6.85
2019-03-22T18:54:58.695Z,7.62
2019-03-22T18:57:30.234Z,8.25
2019-03-22T19:00:02.411Z,8.93
2019-03-22T19:02:34.284Z,11.60
2019-03-22T19:05:07.971Z,9.07
2019-03-22T19:10:12.479Z,8.80
2019-03-22T19:12:44.091Z,10.70
2019-03-22T19:15:15.972Z,11.08
2019-03-22T19:17:47.386Z,11.17
2019-03-22T19:20:20.896Z,11.97
2019-03-22T19:22:52.560Z,11.20
2019-03-22T19:25:24.401Z,11.77
2019-03-22T19:27:56.077Z,12.65
2019-03-22T19:30:27.690Z,9.00
2019-03-22T19:32:59.470Z,8.90
2019-03-22T19:35:32.902Z,7.30
2019-03-22T19:38:04.730Z,6.62
2019-03-22T19:40:36.203Z,6.20
2019-03-22T19:43:08.161Z,6.23
2019-03-22T19:45:39.611Z,6.60
2019-03-22T19:48:12.544Z,6.62
2019-03-22T19:50:44.341Z,5.80
2019-03-22T19:53:16.204Z,6.60
2019-03-22T19:55:47.817Z,7.80
2019-03-22T19:58:19.250Z,7.35
2019-03-22T20:00:50.976Z,6.15
2019-03-22T20:03:22.527Z,6.30
2019-03-22T20:05:54.219Z,6.50
2019-03-22T20:08:25.934Z,7.15
2019-03-22T20:10:57.636Z,7.95
2019-03-22T20:13:29.285Z,7.62
2019-03-22T20:16:01.045Z,8.15
2019-03-22T20:18:32.801Z,8.28
2019-03-22T20:21:04.561Z,9.65
2019-03-22T20:23:36.219Z,9.53
2019-03-22T20:26:07.982Z,8.70
2019-03-22T20:28:39.736Z,9.08
2019-03-22T20:31:11.513Z,7.73
2019-03-22T20:33:43.456Z,8.10
2019-03-22T20:36:15.351Z,8.97
2019-03-22T20:38:46.968Z,9.25
2019-03-22T20:41:19.038Z,9.35
2019-03-22T20:43:50.490Z,8.95
2019-03-22T20:46:22.352Z,8.40
2019-03-22T20:48:53.912Z,9.63
2019-03-22T20:51:25.775Z,10.57
2019-03-22T20:53:57.432Z,10.17
2019-03-22T20:56:29.187Z,9.20
2019-03-22T20:59:00.632Z,9.73
2019-03-22T21:01:32.230Z,9.90
2019-03-22T21:04:03.990Z,9.87
2019-03-22T21:06:36.067Z,10.90
2019-03-22T21:09:07.741Z,9.67
2019-03-22T21:11:39.349Z,9.10
2019-03-22T21:14:10.795Z,11.63
2019-03-22T21:16:42.519Z,11.60
2019-03-22T21:19:14.345Z,11.53
2019-03-22T21:21:45.734Z,12.40
2019-03-22T21:24:17.616Z,13.37
2019-03-22T21:26:49.373Z,13.20
2019-03-22T21:29:22.055Z,12.33
2019-03-22T21:31:53.812Z,12.30
2019-03-22T21:34:25.672Z,12.77
2019-03-22T21:36:57.129Z,12.77
2019-03-22T21:39:30.633Z,11.80
2019-03-22T21:42:02.600Z,10.97
2019-03-22T21:44:34.131Z,10.10
2019-03-22T21:47:05.973Z,9.27
2019-03-22T21:49:37.763Z,10.50
2019-03-22T21:52:10.018Z,10.73
2019-03-22T21:54:41.496Z,12.07
2019-03-22T21:57:13.140Z,11.50
2019-03-22T21:59:44.701Z,11.90
2019-03-22T22:02:16.494Z,11.40
2019-03-22T22:04:48.880Z,12.60
2019-03-22T22:07:20.487Z,12.30
2019-03-22T22:09:52.141Z,14.20
2019-03-22T22:12:24.003Z,14.13
2019-03-22T22:14:55.755Z,11.73
2019-03-22T22:17:27.400Z,12.30
2019-03-22T22:19:59.102Z,10.93
2019-03-22T22:22:30.508Z,10.50
2019-03-22T22:25:02.067Z,12.47
2019-03-22T22:27:33.737Z,11.80
2019-03-22T22:30:10.655Z,11.80
2019-03-22T22:32:42.968Z,11.60
2019-03-22T22:35:14.420Z,12.10
2019-03-22T22:37:47.839Z,12.20
2019-03-22T22:40:19.595Z,13.13
2019-03-22T22:42:51.232Z,13.53
2019-03-22T22:45:22.707Z,12.67
2019-03-22T22:47:54.459Z,14.60
2019-03-22T22:50:26.095Z,13.60
2019-03-22T22:52:57.560Z,15.73
2019-03-22T22:55:29.331Z,15.80
2019-03-22T22:58:00.987Z,15.07
2019-03-22T23:00:33.040Z,17.27
2019-03-22T23:03:04.912Z,20.70
2019-03-22T23:05:37.067Z,24.67
2019-03-22T23:08:08.438Z,21.07
2019-03-22T23:10:41.903Z,21.27
2019-03-22T23:13:13.487Z,22.30
2019-03-22T23:15:44.920Z,23.37
2019-03-22T23:18:16.399Z,21.97
2019-03-22T23:20:47.828Z,22.70
2019-03-22T23:23:19.504Z,22.37
2019-03-22T23:25:51.367Z,23.87
2019-03-22T23:28:22.797Z,22.93
2019-03-22T23:30:55.379Z,22.73
2019-03-22T23:33:27.052Z,25.80
2019-03-22T23:35:58.899Z,26.50
2019-03-22T23:38:31.909Z,24.50
2019-03-22T23:41:03.459Z,23.57
2019-03-22T23:43:35.014Z,24.10
2019-03-22T23:46:06.684Z,25.03
2019-03-22T23:48:38.432Z,26.50
2019-03-22T23:51:10.088Z,27.20
2019-03-22T23:53:41.544Z,33.20
2019-03-22T23:56:14.531Z,33.33
2019-03-22T23:58:46.272Z,34.17
